createdAt,value
2018-07-02T00:03:52.720Z,80.30
2018-07-02T00:08:47.936Z,80.60
2018-07-02T00:13:43.149Z,80.60
2018-07-02T00:18:38.301Z,81.70
2018-07-02T00:23:33.613Z,83.70
2018-07-02T00:28:28.619Z,83.10
2018-07-02T00:33:23.803Z,83.20
2018-07-02T00:38:36.000Z,84.10
2018-07-02T00:44:29.792Z,83.60
2018-07-02T00:49:39.529Z,84.50
2018-07-02T00:54:34.719Z,83.10
2018-07-02T00:59:29.979Z,84.00
2018-07-02T01:04:25.668Z,85.10
2018-07-02T01:09:25.109Z,85.00
2018-07-02T01:14:22.361Z,85.80
2018-07-02T01:19:42.617Z,85.60
2018-07-02T01:24:39.531Z,85.30
2018-07-02T01:29:37.124Z,87.40
2018-07-02T01:39:44.762Z,89.20
2018-07-02T01:46:20.629Z,89.10
2018-07-02T01:51:16.580Z,87.30
2018-07-02T02:06:53.868Z,89.60
2018-07-02T02:11:50.561Z,90.20
2018-07-02T02:16:46.561Z,90.30
2018-07-02T02:22:12.547Z,91.00
2018-07-02T02:27:07.743Z,91.10
2018-07-02T02:32:30.662Z,91.50
2018-07-02T02:37:27.954Z,92.00
2018-07-02T02:42:23.044Z,91.90
2018-07-02T02:47:18.351Z,92.00
2018-07-02T02:52:14.608Z,92.50
2018-07-02T02:57:09.700Z,92.00
2018-07-02T03:02:54.090Z,92.00
2018-07-02T03:07:49.387Z,92.30
2018-07-02T03:12:44.809Z,92.10
2018-07-02T03:17:41.746Z,92.70
2018-07-02T03:22:36.938Z,92.40
2018-07-02T03:28:23.053Z,93.00
2018-07-02T03:33:43.526Z,93.20
2018-07-02T03:38:38.561Z,93.10
2018-07-02T03:43:34.260Z,92.90
2018-07-02T03:48:31.465Z,93.40
2018-07-02T03:58:54.096Z,93.30
2018-07-02T04:04:06.036Z,92.40
2018-07-02T04:09:02.251Z,93.10
2018-07-02T04:13:57.483Z,93.40
2018-07-02T04:18:57.668Z,93.10
2018-07-02T04:23:54.641Z,93.10
2018-07-02T04:28:49.963Z,92.90
2018-07-02T04:33:59.619Z,93.30
2018-07-02T04:39:26.077Z,94.20
2018-07-02T04:44:21.152Z,93.30
2018-07-02T04:49:15.950Z,92.30
2018-07-02T04:59:07.782Z,92.60
2018-07-02T05:04:02.941Z,91.70
2018-07-02T05:08:57.862Z,85.10
2018-07-02T05:13:52.601Z,87.70
2018-07-02T05:18:47.375Z,85.70
2018-07-02T05:23:42.637Z,86.80
2018-07-02T05:28:37.797Z,79.20
2018-07-02T05:35:28.515Z,82.70
2018-07-02T05:40:32.193Z,78.70
2018-07-02T05:45:28.895Z,77.50
2018-07-02T05:50:25.233Z,77.70
2018-07-02T05:55:21.202Z,76.50
2018-07-02T06:01:16.288Z,76.00
2018-07-02T06:06:16.589Z,78.90
2018-07-02T06:11:33.103Z,79.00
2018-07-02T06:16:29.050Z,77.00
2018-07-02T06:21:23.917Z,77.30
2018-07-02T06:26:18.872Z,77.60
2018-07-02T06:31:13.670Z,78.10
2018-07-02T06:36:08.863Z,78.70
2018-07-02T07:03:15.236Z,81.10
2018-07-02T07:08:10.555Z,75.30
2018-07-02T07:13:05.769Z,72.50
2018-07-02T07:18:01.108Z,73.20
2018-07-02T07:22:56.833Z,68.30
2018-07-02T07:27:51.786Z,70.90
2018-07-02T07:32:46.678Z,67.50
2018-07-02T07:37:59.986Z,66.70
2018-07-02T07:42:56.367Z,68.70
2018-07-02T07:47:51.350Z,65.90
2018-07-02T07:52:47.235Z,69.00
2018-07-02T07:57:42.920Z,68.50
2018-07-02T08:02:37.823Z,66.60
2018-07-02T08:07:32.725Z,65.90
2018-07-02T08:12:27.704Z,67.50
2018-07-02T08:17:22.450Z,63.90
2018-07-02T08:22:17.747Z,62.60
2018-07-02T08:27:15.424Z,63.20
2018-07-02T08:32:23.934Z,61.50
2018-07-02T08:37:18.702Z,63.20
2018-07-02T08:42:13.436Z,61.10
2018-07-02T08:47:08.535Z,63.40
2018-07-02T08:52:03.332Z,62.30
2018-07-02T08:56:58.052Z,61.50
2018-07-02T09:01:55.171Z,61.00
2018-07-02T09:06:52.862Z,60.40
2018-07-02T09:11:47.642Z,62.00
2018-07-02T09:16:43.018Z,59.80
2018-07-02T09:26:52.956Z,58.10
2018-07-02T09:31:47.923Z,60.30
2018-07-02T09:36:43.785Z,59.90
2018-07-02T09:41:39.703Z,57.70
2018-07-02T09:46:34.432Z,58.90
2018-07-02T09:51:29.560Z,61.90
2018-07-02T09:56:24.418Z,59.90
2018-07-02T10:01:19.483Z,58.80
2018-07-02T10:06:14.350Z,58.40
2018-07-02T10:11:09.385Z,59.50
2018-07-02T10:16:04.269Z,60.90
2018-07-02T10:20:59.567Z,58.60
2018-07-02T10:25:54.629Z,58.90
2018-07-02T10:30:49.454Z,57.60
2018-07-02T10:35:44.386Z,57.10
2018-07-02T10:40:41.045Z,56.60
2018-07-02T10:45:35.959Z,59.30
2018-07-02T10:55:50.975Z,58.50
2018-07-02T11:00:46.000Z,58.40
2018-07-02T11:05:40.936Z,58.90
2018-07-02T11:10:35.810Z,57.00
2018-07-02T11:15:30.766Z,57.50
2018-07-02T11:20:25.766Z,57.10
2018-07-02T11:25:20.644Z,54.70
2018-07-02T11:30:15.585Z,53.80
2018-07-02T11:35:10.806Z,54.10
2018-07-02T11:40:06.167Z,53.90
2018-07-02T11:45:01.134Z,53.00
2018-07-02T11:49:55.992Z,57.90
2018-07-02T11:54:50.983Z,54.40
2018-07-02T11:59:46.520Z,53.00
2018-07-02T12:04:48.554Z,54.50
2018-07-02T12:15:10.652Z,54.30
2018-07-02T12:20:06.076Z,54.10
2018-07-02T12:25:00.951Z,57.80
2018-07-02T12:29:57.332Z,53.30
2018-07-02T12:34:52.376Z,54.80
2018-07-02T12:39:47.358Z,57.40
2018-07-02T12:44:42.447Z,54.50
2018-07-02T12:49:37.379Z,55.50
2018-07-02T12:54:32.394Z,52.70
2018-07-02T12:59:27.545Z,57.60
2018-07-02T13:04:23.405Z,54.60
2018-07-02T13:09:18.379Z,54.40
2018-07-02T13:14:13.306Z,55.50
2018-07-02T13:19:09.348Z,53.30
2018-07-02T13:24:04.341Z,55.80
2018-07-02T13:28:59.350Z,55.80
2018-07-02T13:33:55.243Z,56.30
2018-07-02T13:38:50.568Z,56.70
2018-07-02T13:43:45.585Z,57.20
2018-07-02T13:48:42.559Z,54.70
2018-07-02T13:53:37.659Z,54.70
2018-07-02T13:58:32.802Z,55.30
2018-07-02T14:03:30.119Z,56.80
2018-07-02T14:14:03.641Z,56.70
2018-07-02T14:18:58.219Z,57.10
2018-07-02T14:23:52.840Z,55.20
2018-07-02T14:28:47.651Z,55.30
2018-07-02T14:33:42.254Z,57.10
2018-07-02T14:38:36.815Z,54.00
2018-07-02T14:43:31.402Z,56.50
2018-07-02T14:48:25.993Z,55.90
2018-07-02T14:53:20.613Z,55.50
2018-07-02T14:58:15.200Z,57.60
2018-07-02T15:03:09.832Z,54.70
2018-07-02T15:08:04.495Z,55.10
2018-07-02T15:12:59.087Z,55.00
2018-07-02T15:17:53.787Z,54.60
2018-07-02T15:22:48.459Z,58.60
2018-07-02T15:27:43.215Z,56.20
2018-07-02T15:32:37.829Z,57.40
2018-07-02T15:37:32.459Z,56.90
2018-07-02T15:42:27.125Z,57.30
2018-07-02T15:47:21.781Z,56.40
2018-07-02T15:57:10.715Z,55.70
2018-07-02T16:02:05.437Z,59.50
2018-07-02T16:07:00.112Z,57.10
2018-07-02T16:11:54.730Z,57.00
2018-07-02T16:16:49.448Z,57.30
2018-07-02T16:21:44.132Z,56.60
2018-07-02T16:26:38.791Z,59.00
2018-07-02T16:31:33.436Z,58.40
2018-07-02T16:36:28.081Z,58.10
2018-07-02T16:41:22.714Z,59.40
2018-07-02T16:46:17.441Z,58.40
2018-07-02T16:51:12.006Z,56.90
2018-07-02T16:56:06.809Z,58.30
2018-07-02T17:01:01.475Z,57.90
2018-07-02T17:10:50.414Z,59.20
2018-07-02T17:15:45.140Z,58.00
2018-07-02T17:20:39.765Z,56.90
2018-07-02T17:25:34.375Z,58.40
2018-07-02T17:30:29.008Z,58.90
2018-07-02T17:35:23.643Z,59.60
2018-07-02T17:40:18.215Z,58.90
2018-07-02T17:45:12.836Z,59.40
2018-07-02T17:50:07.715Z,58.70
2018-07-02T17:55:02.310Z,59.40
2018-07-02T17:59:56.927Z,59.30
2018-07-02T18:04:51.585Z,61.90
2018-07-02T18:09:46.204Z,61.30
2018-07-02T18:14:40.832Z,60.00
2018-07-02T18:19:35.535Z,60.00
2018-07-02T18:24:30.208Z,58.90
2018-07-02T18:29:24.828Z,61.00
2018-07-02T18:34:19.479Z,57.70
2018-07-02T18:39:14.228Z,63.90
2018-07-02T18:44:09.187Z,62.00
2018-07-02T18:53:58.136Z,63.20
2018-07-02T18:58:52.859Z,65.40
2018-07-02T19:03:47.508Z,65.20
2018-07-02T19:08:42.224Z,64.20
2018-07-02T19:13:36.822Z,66.40
2018-07-02T19:23:26.375Z,65.10
2018-07-02T19:28:20.988Z,67.40
2018-07-02T19:33:15.637Z,66.70
2018-07-02T19:38:10.515Z,68.40
2018-07-02T19:43:05.156Z,69.20
2018-07-02T19:47:59.835Z,69.30
2018-07-02T19:52:54.504Z,69.40
2018-07-02T19:57:49.120Z,70.70
2018-07-02T20:02:43.824Z,68.50
2018-07-02T20:07:38.421Z,69.20
2018-07-02T20:12:33.201Z,70.40
2018-07-02T20:17:27.857Z,69.00
2018-07-02T20:22:22.480Z,70.50
2018-07-02T20:27:17.148Z,70.90
2018-07-02T20:32:11.772Z,73.10
2018-07-02T20:37:06.599Z,74.20
2018-07-02T20:42:01.281Z,73.60
2018-07-02T20:46:55.923Z,73.30
2018-07-02T20:51:50.570Z,71.60
2018-07-02T20:56:45.195Z,72.00
2018-07-02T21:01:39.919Z,72.70
2018-07-02T21:06:34.535Z,74.30
2018-07-02T21:11:29.177Z,75.80
2018-07-02T21:16:23.791Z,76.40
2018-07-02T21:21:18.684Z,77.20
2018-07-02T21:26:13.332Z,76.30
2018-07-02T21:31:07.969Z,75.90
2018-07-02T21:36:02.656Z,78.60
2018-07-02T21:40:58.435Z,78.10
2018-07-02T21:45:53.101Z,79.30
2018-07-02T21:50:47.732Z,80.30
2018-07-02T21:55:42.343Z,82.70
2018-07-02T22:00:37.781Z,83.10
2018-07-02T22:05:32.489Z,85.20
2018-07-02T22:15:21.441Z,86.80
2018-07-02T22:20:16.072Z,87.10
2018-07-02T22:25:10.762Z,88.90
2018-07-02T22:30:05.478Z,90.10
2018-07-02T22:35:00.117Z,87.80
2018-07-02T22:39:54.767Z,89.50
2018-07-02T22:44:49.363Z,89.30
2018-07-02T22:49:43.998Z,89.10
2018-07-02T22:54:38.627Z,88.00
2018-07-02T22:59:33.276Z,90.20
2018-07-02T23:04:28.064Z,90.10
2018-07-02T23:09:23.833Z,91.30
2018-07-02T23:14:18.518Z,92.00
2018-07-02T23:19:13.104Z,91.50
2018-07-02T23:24:07.781Z,91.70
2018-07-02T23:29:02.358Z,91.90
2018-07-02T23:33:57.029Z,92.80
2018-07-02T23:38:51.637Z,92.60
2018-07-02T23:43:46.226Z,92.90
2018-07-02T23:48:40.884Z,93.40
2018-07-02T23:53:35.488Z,92.80
2018-07-02T23:58:30.199Z,92.40
